Murcia Airport, Spain

7:58 PM CET on February 08, 2016 (GMT +0100)
AVILESES | | Change Station
CLOSE
Current Station
Personal Weather Station
Location: San Javier, REGIóN DE MURCIA
Elevation: 331 ft
Nearby Weather Stations

Elev 331 ft 37.84 °N, 0.91 °W | Updated 44 seconds ago

Clear
Clear
57.0 °F
Feels Like 57.0 °F
N
2.7
Wind Variable Wind from WSW
Gusts 4.9 mph

Today
High -- | Low -- °F
--% Chance of Precip.
Yesterday
High -- | Low -- °F
Precip. -- in
Pressure 30.27 in
Visibility -9999.0 miles
Clouds
Dew Point 8 °F
Humidity 14%
Rainfall 0.00 in
Snow Depth Not available.
8:01 AM 6:33 PM
New Moon, 0% visible
METAR LEAL 081830Z 29017KT CAVOK 17/05 Q1025 NOSIG
Pressure 30.27 in
Visibility -9999.0 miles
Clouds
Dew Point 8 °F
Humidity 14%
Rainfall 0.00 in
Snow Depth Not available.
8:01 AM 6:33 PM
New Moon, 0% visible
METAR LEAL 081830Z 29017KT CAVOK 17/05 Q1025 NOSIG

10-Day Weather Forecast

Almanac

Astronomy

Feb. 08, 2016 Rise Set
Actual Time
Civil Twilight
Nautical Twilight
Astronomical Twilight
Moon
Length of Visible Light
Length of Day
Tomorrow will be .
, % of the Moon is Illuminated

Today's Extremes

Country Highs Country Lows

Community

WunderPhotos

Upload Photos

1,891,481 photos uploaded!

WunderBlog® & News

Nearby

Air Quality

  Air Quality AQ Index Pollutant
Not available.

Snow Depth

Station Depth Elevation

Earthquake Activity

City Distance Mag. Time & Date
Minimum magnitude displayed is 2.5.

Coastal Water Temperatures

Place Temperature

Stations

Nearby Weather Stations

Station Location Temp. Windchill Dew Point Humidity Wind Precip. Elev Updated Type